ADDS METAR Data INFO
IDs: Format: Raw Decoded Include TAF

Data at: 1501 UTC 11 Dec 2017

KPWA 111453Z 22006KT 10SM CLR 08/M04 A3018 RMK AO2 SLP224 T00781039 56005
KPWA 111353Z COR 23005KT 10SM CLR 03/M06 A3018 RMK AO2 SLP226 T00281056
KPWA 111253Z 22006KT 10SM CLR 01/M05 A3018 RMK AO2 SLP225 T00061050
KPWA 111153Z AUTO 24006KT 10SM CLR 03/M06 A3020 RMK AO2 SLP226 T00281061 10050 21011 58007
KPWA 111053Z AUTO 21006KT 10SM CLR 02/M05 A3021 RMK AO2 SLP229 T00171050
KPWA 110953Z AUTO 22006KT 10SM CLR 01/M05 A3022 RMK AO2 SLP233 T00111050
KPWA 110853Z AUTO 20003KT 10SM CLR 02/M05 A3022 RMK AO2 SLP231 T00221050 56014
KPWA 110753Z AUTO 22005KT 10SM CLR 01/M04 A3023 RMK AO2 SLP235 T00061044
KPWA 110653Z AUTO 24003KT 10SM CLR 03/M04 A3024 RMK AO2 SLP239 T00331044
KPWA 110553Z AUTO 23004KT 10SM CLR 03/M06 A3026 RMK AO2 SLP248 T00281061 10144 20017 402001028 58003
KPWA 110453Z AUTO 24004KT 10SM CLR 08/M07 A3027 RMK AO2 SLP251 T00781072
KPWA 110353Z 22004KT 10SM CLR 04/M06 A3027 RMK AO2 SLP253 T00441056
KPWA 110253Z 23003KT 10SM CLR 06/M06 A3027 RMK AO2 SLP255 T00561061 53002
KPWA 110153Z 21004KT 10SM CLR 05/M06 A3027 RMK AO2 SLP255 T00501061
KPWA 110053Z 22003KT 10SM CLR 08/M07 A3027 RMK AO2 SLP255 T00781072
KPWA 102353Z 29003KT 10SM CLR 14/M08 A3026 RMK AO2 SLP250 T01441078 10200 20133 51004
KPWA 102253Z 28006KT 10SM CLR 17/M08 A3026 RMK AO2 SLP248 T01721083
KPWA 102153Z 30011G17KT 10SM CLR 20/M10 A3026 RMK AO2 SLP246 T02001100
KPWA 102053Z COR 31009KT 10SM CLR 20/M10 A3025 RMK AO2 SLP245 T02001100 56019
KPWA 101953Z 29010KT 10SM CLR 19/M08 A3026 RMK AO2 SLP247 T01891083
KPWA 101853Z 29009KT 10SM CLR 18/M08 A3029 RMK AO2 SLP257 T01781078
KPWA 101753Z 32007KT 10SM CLR 16/M08 A3031 RMK AO2 SLP266 T01611083 10161 21006 58001
KPWA 101653Z 32012KT 10SM CLR 13/M09 A3033 RMK AO2 SLP274 T01331089
KPWA 101553Z 31010KT 10SM CLR 12/M09 A3032 RMK AO2 SLP271 T01171089
KPWA 101453Z 25006KT 10SM CLR 04/M05 A3031 RMK AO2 SLP271 T00441050 53009
KPWA 101353Z 25006KT 10SM CLR 01/M06 A3030 RMK AO2 SLP268 T00111061
KPWA 101253Z 24006KT 10SM CLR 00/M07 A3029 RMK AO2 SLP264 T00001067
KPWA 101153Z AUTO 24008KT 10SM CLR 02/M06 A3028 RMK AO2 SLP260 T00171056 10017 21028 58003
KPWA 101053Z AUTO 25009KT 10SM CLR 01/M06 A3029 RMK AO2 SLP259 T00111056
KPWA 100953Z AUTO 24007KT 10SM CLR M01/M06 A3029 RMK AO2 SLP262 T10061056
KPWA 100853Z AUTO 22007KT 10SM CLR M02/M05 A3030 RMK AO2 SLP263 T10221050 56008
KPWA 100753Z AUTO 21004KT 10SM CLR 01/M04 A3030 RMK AO2 SLP263 T00061039
KPWA 100653Z AUTO 21005KT 10SM CLR M02/M05 A3031 RMK AO2 SLP269 T10221050
KPWA 100553Z AUTO 21004KT 10SM CLR M01/M04 A3032 RMK AO2 SLP273 T10111044 10078 21022 401331044 51007
KPWA 100453Z AUTO 24003KT 10SM CLR 00/M04 A3032 RMK AO2 SLP272 T00001044
KPWA 100353Z AUTO 23003KT 10SM CLR 00/M05 A3030 RMK AO2 SLP269 T00001050